createdAt,value
2023-01-09T00:00:22.234Z,10.10
2023-01-09T00:01:54.263Z,10.10
2023-01-09T00:03:26.093Z,10.10
2023-01-09T00:04:57.713Z,10.10
2023-01-09T00:06:29.637Z,10.00
2023-01-09T00:08:01.320Z,10.10
2023-01-09T00:09:32.970Z,10.10
2023-01-09T00:11:04.764Z,10.00
2023-01-09T00:12:37.078Z,10.00
2023-01-09T00:14:10.906Z,10.00
2023-01-09T00:15:42.800Z,10.00
2023-01-09T00:17:14.443Z,10.00
2023-01-09T00:18:46.048Z,10.00
2023-01-09T00:20:17.870Z,10.00
2023-01-09T00:21:49.603Z,10.00
2023-01-09T00:23:21.257Z,10.00
2023-01-09T00:24:52.859Z,9.90
2023-01-09T00:26:24.510Z,9.90
2023-01-09T00:27:56.144Z,9.90
2023-01-09T00:29:28.090Z,10.00
2023-01-09T00:31:00.932Z,9.90
2023-01-09T00:32:32.769Z,9.90
2023-01-09T00:34:10.413Z,9.90
2023-01-09T00:35:42.134Z,9.90
2023-01-09T00:37:13.844Z,9.90
2023-01-09T00:38:45.489Z,9.90
2023-01-09T00:40:17.914Z,9.90
2023-01-09T00:41:53.158Z,9.90
2023-01-09T00:43:30.161Z,9.90
2023-01-09T00:45:05.593Z,9.90
2023-01-09T00:46:42.359Z,9.90
2023-01-09T00:48:16.946Z,9.90
2023-01-09T00:49:50.104Z,9.90
2023-01-09T00:51:21.985Z,9.90
2023-01-09T00:52:56.319Z,9.90
2023-01-09T00:54:29.404Z,9.90
2023-01-09T00:56:06.773Z,9.90
2023-01-09T00:57:38.456Z,9.90
2023-01-09T00:59:10.266Z,9.90
2023-01-09T01:00:41.911Z,9.90
2023-01-09T01:02:13.648Z,9.90
2023-01-09T01:03:45.563Z,9.90
2023-01-09T01:05:36.031Z,9.90
2023-01-09T01:07:26.372Z,9.90
2023-01-09T01:08:58.058Z,9.90
2023-01-09T01:10:29.700Z,9.90
2023-01-09T01:12:06.865Z,9.90
2023-01-09T01:13:39.748Z,9.90
2023-01-09T01:15:12.599Z,9.90
2023-01-09T01:16:44.269Z,9.90
2023-01-09T01:18:15.973Z,9.90
2023-01-09T01:19:47.694Z,9.80
2023-01-09T01:21:19.347Z,9.80
2023-01-09T01:22:51.064Z,9.80
2023-01-09T01:24:23.380Z,9.80
2023-01-09T01:25:54.998Z,9.80
2023-01-09T01:27:28.297Z,9.70
2023-01-09T01:28:59.952Z,9.80
2023-01-09T01:30:31.852Z,9.70
2023-01-09T01:32:03.714Z,9.80
2023-01-09T01:33:36.139Z,9.70
2023-01-09T01:35:08.690Z,9.70
2023-01-09T01:36:40.333Z,9.70
2023-01-09T01:38:11.954Z,9.70
2023-01-09T01:39:43.603Z,9.70
2023-01-09T01:41:29.118Z,9.70
2023-01-09T01:43:00.802Z,9.70
2023-01-09T01:45:06.559Z,9.70
2023-01-09T01:46:38.192Z,9.70
2023-01-09T01:48:14.505Z,9.70
2023-01-09T01:49:46.972Z,9.70
2023-01-09T01:51:20.635Z,9.60
2023-01-09T01:53:17.476Z,9.70
2023-01-09T01:54:49.309Z,9.70
2023-01-09T01:56:28.620Z,9.60
2023-01-09T01:58:05.255Z,9.70
2023-01-09T01:59:50.102Z,9.60
2023-01-09T02:01:23.009Z,9.70
2023-01-09T02:02:55.041Z,9.60
2023-01-09T02:04:28.672Z,9.60
2023-01-09T02:06:00.467Z,9.60
2023-01-09T02:07:32.123Z,9.60
2023-01-09T02:09:05.823Z,9.60
2023-01-09T02:10:40.257Z,9.60
2023-01-09T02:12:26.400Z,9.60
2023-01-09T02:14:00.208Z,9.60
2023-01-09T02:15:55.586Z,9.60
2023-01-09T02:17:59.163Z,9.50
2023-01-09T02:20:01.351Z,9.60
2023-01-09T02:21:50.996Z,9.60
2023-01-09T02:23:55.877Z,9.60
2023-01-09T02:26:03.322Z,9.60
2023-01-09T02:27:46.494Z,9.50
2023-01-09T02:29:48.942Z,9.50
2023-01-09T02:31:32.849Z,9.50
2023-01-09T02:33:42.355Z,9.60
2023-01-09T02:35:26.339Z,9.60
2023-01-09T02:37:04.448Z,9.50
2023-01-09T02:38:58.565Z,9.50
2023-01-09T02:40:35.231Z,9.50
2023-01-09T02:42:26.911Z,9.50
2023-01-09T02:44:17.958Z,9.50
2023-01-09T02:45:49.740Z,9.50
2023-01-09T02:47:21.413Z,9.50
2023-01-09T02:48:54.652Z,9.50
2023-01-09T02:50:32.083Z,9.40
2023-01-09T02:52:34.930Z,9.50
2023-01-09T02:54:35.751Z,9.40
2023-01-09T02:56:26.383Z,9.40
2023-01-09T02:58:14.294Z,9.40
2023-01-09T03:00:00.799Z,9.40
2023-01-09T03:02:10.239Z,9.40
2023-01-09T03:04:12.586Z,9.40
2023-01-09T03:05:53.344Z,9.40
2023-01-09T03:07:36.420Z,9.40
2023-01-09T03:09:16.394Z,9.40
2023-01-09T03:11:00.666Z,9.40
2023-01-09T03:12:33.135Z,9.40
2023-01-09T03:14:11.045Z,9.40
2023-01-09T03:15:46.165Z,9.40
2023-01-09T03:17:39.561Z,9.40
2023-01-09T03:19:15.950Z,9.40
2023-01-09T03:20:48.957Z,9.40
2023-01-09T03:22:20.665Z,9.40
2023-01-09T03:23:55.194Z,9.30
2023-01-09T03:25:28.626Z,9.40
2023-01-09T03:27:00.413Z,9.40
2023-01-09T03:28:32.381Z,9.30
2023-01-09T03:30:05.037Z,9.30
2023-01-09T03:31:36.869Z,9.30
2023-01-09T03:33:08.695Z,9.30
2023-01-09T03:34:40.390Z,9.30
2023-01-09T03:36:13.400Z,9.30
2023-01-09T03:37:45.057Z,9.30
2023-01-09T03:39:16.919Z,9.30
2023-01-09T03:40:48.528Z,9.30
2023-01-09T03:42:20.179Z,9.30
2023-01-09T03:43:51.790Z,9.30
2023-01-09T03:45:23.455Z,9.30
2023-01-09T03:46:55.081Z,9.30
2023-01-09T03:48:26.827Z,9.30
2023-01-09T03:49:58.450Z,9.30
2023-01-09T03:51:30.095Z,9.30
2023-01-09T03:53:01.839Z,9.30
2023-01-09T03:54:33.465Z,9.30
2023-01-09T03:56:05.464Z,9.30
2023-01-09T03:57:37.093Z,9.30
2023-01-09T03:59:08.724Z,9.30
2023-01-09T04:00:40.909Z,9.40
2023-01-09T04:02:12.682Z,9.30
2023-01-09T04:03:44.449Z,9.30
2023-01-09T04:05:16.213Z,9.40
2023-01-09T04:06:47.919Z,9.40
2023-01-09T04:08:20.063Z,9.40
2023-01-09T04:09:51.769Z,9.30
2023-01-09T04:11:23.450Z,9.30
2023-01-09T04:12:55.285Z,9.40
2023-01-09T04:14:26.960Z,9.40
2023-01-09T04:15:58.671Z,9.30
2023-01-09T04:17:30.300Z,9.30
2023-01-09T04:19:01.938Z,9.30
2023-01-09T04:20:34.426Z,9.30
2023-01-09T04:22:06.075Z,9.30
2023-01-09T04:23:37.752Z,9.30
2023-01-09T04:25:10.143Z,9.30
2023-01-09T04:26:42.323Z,9.20
2023-01-09T04:28:14.068Z,9.30
2023-01-09T04:29:46.021Z,9.20
2023-01-09T04:31:17.706Z,9.20
2023-01-09T04:32:49.435Z,9.20
2023-01-09T04:34:25.452Z,9.20
2023-01-09T04:35:57.110Z,9.20
2023-01-09T04:37:28.735Z,9.20
2023-01-09T04:39:00.366Z,9.20
2023-01-09T04:40:32.082Z,9.20
2023-01-09T04:42:03.826Z,9.20
2023-01-09T04:43:35.537Z,9.20
2023-01-09T04:45:09.384Z,9.20
2023-01-09T04:46:41.028Z,9.20
2023-01-09T04:48:12.698Z,9.20
2023-01-09T04:49:44.368Z,9.20
2023-01-09T04:51:15.991Z,9.20
2023-01-09T04:52:47.768Z,9.20
2023-01-09T04:54:20.565Z,9.20
2023-01-09T04:55:52.321Z,9.20
2023-01-09T04:57:24.022Z,9.20
2023-01-09T04:58:55.650Z,9.20
2023-01-09T05:00:27.363Z,9.10
2023-01-09T05:01:59.395Z,9.10
2023-01-09T05:03:31.111Z,9.10
2023-01-09T05:05:02.820Z,9.20
2023-01-09T05:06:34.603Z,9.10
2023-01-09T05:08:06.513Z,9.20
2023-01-09T05:09:38.314Z,9.10
2023-01-09T05:11:10.043Z,9.10
2023-01-09T05:12:41.728Z,9.10
2023-01-09T05:14:13.363Z,9.10
2023-01-09T05:15:44.982Z,9.20
2023-01-09T05:17:16.601Z,9.20
2023-01-09T05:18:48.502Z,9.20
2023-01-09T05:20:20.112Z,9.20
2023-01-09T05:21:51.830Z,9.20
2023-01-09T05:23:23.510Z,9.20
2023-01-09T05:24:55.141Z,9.20
2023-01-09T05:26:27.006Z,9.20
2023-01-09T05:27:59.770Z,9.20
2023-01-09T05:29:31.421Z,9.20
2023-01-09T05:31:03.149Z,9.20
2023-01-09T05:32:34.783Z,9.20
2023-01-09T05:34:06.502Z,9.20
2023-01-09T05:35:38.191Z,9.20
2023-01-09T05:37:09.876Z,9.20
2023-01-09T05:38:41.952Z,9.20
2023-01-09T05:40:13.742Z,9.20
2023-01-09T05:41:45.399Z,9.20
2023-01-09T05:43:17.075Z,9.20
2023-01-09T05:44:48.725Z,9.20
2023-01-09T05:46:20.447Z,9.20
2023-01-09T05:47:52.059Z,9.20
2023-01-09T05:49:23.755Z,9.10
2023-01-09T05:50:55.515Z,9.10
2023-01-09T05:52:27.152Z,9.10
2023-01-09T05:53:59.557Z,9.10
2023-01-09T05:55:31.262Z,9.20
2023-01-09T05:57:02.990Z,9.20
2023-01-09T05:58:34.652Z,9.20
2023-01-09T06:00:06.830Z,9.20
2023-01-09T06:01:38.545Z,9.20
2023-01-09T06:03:10.291Z,9.20
2023-01-09T06:04:43.715Z,9.20
2023-01-09T06:06:15.405Z,9.20
2023-01-09T06:07:47.027Z,9.20
2023-01-09T06:09:18.674Z,9.20
2023-01-09T06:10:50.271Z,9.20
2023-01-09T06:12:21.942Z,9.20
2023-01-09T06:13:53.550Z,9.20
2023-01-09T06:15:25.195Z,9.20
2023-01-09T06:16:57.185Z,9.20
2023-01-09T06:18:28.817Z,9.20
2023-01-09T06:20:00.463Z,9.20
2023-01-09T06:21:32.692Z,9.20
2023-01-09T06:23:04.322Z,9.20
2023-01-09T06:24:35.983Z,9.20
2023-01-09T06:26:07.771Z,9.20
2023-01-09T06:27:39.461Z,9.20
2023-01-09T06:29:11.216Z,9.20
2023-01-09T06:30:42.820Z,9.20
2023-01-09T06:32:14.468Z,9.20
2023-01-09T06:33:46.209Z,9.20
2023-01-09T06:35:22.234Z,9.20
2023-01-09T06:36:53.899Z,9.20
2023-01-09T06:38:25.596Z,9.20
2023-01-09T06:39:57.280Z,9.20
2023-01-09T06:41:28.926Z,9.20
2023-01-09T06:43:00.554Z,9.20
2023-01-09T06:44:33.089Z,9.20
2023-01-09T06:46:07.693Z,9.20
2023-01-09T06:47:40.297Z,9.20
2023-01-09T06:49:11.994Z,9.20
2023-01-09T06:50:43.685Z,9.20
2023-01-09T06:52:15.295Z,9.20
2023-01-09T06:53:47.029Z,9.20
2023-01-09T06:55:18.818Z,9.20
2023-01-09T06:56:50.523Z,9.20
2023-01-09T06:58:22.183Z,9.20
2023-01-09T06:59:53.885Z,9.20
2023-01-09T07:01:25.610Z,9.20
2023-01-09T07:02:57.426Z,9.20
2023-01-09T07:04:29.076Z,9.20
2023-01-09T07:06:00.828Z,9.20
2023-01-09T07:07:32.487Z,9.20
2023-01-09T07:09:05.977Z,9.20
2023-01-09T07:10:37.684Z,9.20
2023-01-09T07:12:09.398Z,9.20
2023-01-09T07:13:41.045Z,9.20
2023-01-09T07:15:12.738Z,9.20
2023-01-09T07:16:44.433Z,9.20
2023-01-09T07:18:16.192Z,9.20
2023-01-09T07:19:47.817Z,9.20
2023-01-09T07:21:19.453Z,9.10
2023-01-09T07:22:51.115Z,9.10
2023-01-09T07:24:22.749Z,9.10
2023-01-09T07:25:54.479Z,9.10
2023-01-09T07:27:26.142Z,9.10
2023-01-09T07:28:57.813Z,9.10
2023-01-09T07:30:29.575Z,9.10
2023-01-09T07:32:01.504Z,9.20
2023-01-09T07:33:33.736Z,9.10
2023-01-09T07:35:06.330Z,9.10
2023-01-09T07:36:38.069Z,9.10
2023-01-09T07:38:09.807Z,9.10
2023-01-09T07:39:41.423Z,9.10
2023-01-09T07:41:13.138Z,9.10
2023-01-09T07:42:45.014Z,9.10
2023-01-09T07:44:16.692Z,9.10
2023-01-09T07:45:48.352Z,9.10
2023-01-09T07:47:20.012Z,9.10
2023-01-09T07:48:51.729Z,9.10
2023-01-09T07:50:23.434Z,9.10
2023-01-09T07:51:55.723Z,9.10
2023-01-09T07:53:27.553Z,9.10
2023-01-09T07:54:59.197Z,9.10
2023-01-09T07:56:30.818Z,9.10
2023-01-09T07:58:02.531Z,9.10
2023-01-09T07:59:34.204Z,9.10
2023-01-09T08:01:06.027Z,9.10
2023-01-09T08:02:37.800Z,9.10
2023-01-09T08:04:09.482Z,9.10
2023-01-09T08:05:41.142Z,9.10
2023-01-09T08:07:12.881Z,9.10
2023-01-09T08:08:44.555Z,9.00
2023-01-09T08:10:19.429Z,9.10
2023-01-09T08:11:51.085Z,9.10
2023-01-09T08:13:22.775Z,9.00
2023-01-09T08:14:54.471Z,9.00
2023-01-09T08:16:26.200Z,9.00
2023-01-09T08:17:57.802Z,9.00
2023-01-09T08:19:29.525Z,9.00
2023-01-09T08:21:01.143Z,8.90
2023-01-09T08:22:32.801Z,9.00
2023-01-09T08:24:04.979Z,9.00
2023-01-09T08:25:36.693Z,9.00
2023-01-09T08:27:08.457Z,9.00
2023-01-09T08:28:40.139Z,9.00
2023-01-09T08:30:12.179Z,9.00
2023-01-09T08:31:43.897Z,9.00
2023-01-09T08:33:15.648Z,9.00
2023-01-09T08:34:47.628Z,9.00
2023-01-09T08:36:19.429Z,9.00
2023-01-09T08:37:51.225Z,8.90
2023-01-09T08:39:22.988Z,9.00
2023-01-09T08:40:54.650Z,9.00
2023-01-09T08:42:45.181Z,8.90
2023-01-09T08:44:35.723Z,9.00
2023-01-09T08:46:37.029Z,9.00
2023-01-09T08:48:08.856Z,9.00
2023-01-09T08:49:40.546Z,9.00
2023-01-09T08:51:12.298Z,9.00
2023-01-09T08:52:43.935Z,9.00
2023-01-09T08:54:15.552Z,8.90
2023-01-09T08:55:47.303Z,8.90
2023-01-09T08:57:19.005Z,8.90
2023-01-09T08:58:50.655Z,8.90
2023-01-09T09:00:24.176Z,8.90
2023-01-09T09:01:55.958Z,8.90
2023-01-09T09:03:27.653Z,8.90
2023-01-09T09:04:59.342Z,8.90
2023-01-09T09:06:32.210Z,8.90
2023-01-09T09:08:04.059Z,9.00
2023-01-09T09:09:35.733Z,9.00
2023-01-09T09:11:08.180Z,9.00
2023-01-09T09:12:39.812Z,8.90
2023-01-09T09:14:30.052Z,8.90
2023-01-09T09:16:01.785Z,8.90
2023-01-09T09:17:33.631Z,9.00
2023-01-09T09:19:05.288Z,8.90
2023-01-09T09:20:38.758Z,9.00
2023-01-09T09:22:10.547Z,8.90
2023-01-09T09:23:44.104Z,9.00
2023-01-09T09:25:16.836Z,8.90
2023-01-09T09:26:48.556Z,8.90
2023-01-09T09:28:20.234Z,9.00
2023-01-09T09:29:51.902Z,9.00
2023-01-09T09:31:24.087Z,9.00
2023-01-09T09:32:55.759Z,9.00
2023-01-09T09:34:27.407Z,8.90
2023-01-09T09:35:59.831Z,8.90
2023-01-09T09:37:31.697Z,8.90
2023-01-09T09:39:03.667Z,8.90
2023-01-09T09:40:42.857Z,8.90
2023-01-09T09:42:45.221Z,8.90
2023-01-09T09:44:48.416Z,8.90
2023-01-09T09:46:27.719Z,8.90
2023-01-09T09:48:41.017Z,8.90
2023-01-09T09:50:39.827Z,9.00
2023-01-09T09:52:17.659Z,8.90
2023-01-09T09:53:59.843Z,9.00
2023-01-09T09:55:34.471Z,9.00
2023-01-09T09:57:10.033Z,9.00
2023-01-09T09:58:46.374Z,9.00
2023-01-09T10:00:23.493Z,8.90
2023-01-09T10:02:04.652Z,9.00
2023-01-09T10:03:41.456Z,9.00
2023-01-09T10:05:43.661Z,9.00
2023-01-09T10:07:26.036Z,9.00
2023-01-09T10:09:16.403Z,9.00
2023-01-09T10:10:53.377Z,9.00
2023-01-09T10:12:32.911Z,9.00
2023-01-09T10:14:08.236Z,9.00
2023-01-09T10:15:51.348Z,9.00
2023-01-09T10:17:47.456Z,9.00
2023-01-09T10:19:30.469Z,9.00
2023-01-09T10:21:21.505Z,9.00
2023-01-09T10:23:08.256Z,9.00
2023-01-09T10:24:47.259Z,9.00
2023-01-09T10:26:37.621Z,9.00
2023-01-09T10:28:25.329Z,9.00
2023-01-09T10:30:09.801Z,9.00
2023-01-09T10:31:58.544Z,9.00
2023-01-09T10:33:42.225Z,9.10
2023-01-09T10:35:47.304Z,9.10
2023-01-09T10:37:24.949Z,9.10
2023-01-09T10:39:03.729Z,9.00
2023-01-09T10:41:01.472Z,9.00
2023-01-09T10:42:44.630Z,9.00
2023-01-09T10:44:38.490Z,9.10
2023-01-09T10:46:16.946Z,9.10
2023-01-09T10:47:49.054Z,9.10
2023-01-09T10:49:22.496Z,9.10
2023-01-09T10:50:56.395Z,9.10
2023-01-09T10:52:39.886Z,9.10
2023-01-09T10:54:18.306Z,9.00
2023-01-09T10:55:54.711Z,9.10
2023-01-09T10:57:42.844Z,9.00
2023-01-09T10:59:14.499Z,9.00
2023-01-09T11:00:47.933Z,9.10
2023-01-09T11:02:30.582Z,9.00
2023-01-09T11:04:02.838Z,9.00
2023-01-09T11:05:36.520Z,9.00
2023-01-09T11:07:21.982Z,9.10
2023-01-09T11:08:57.033Z,9.00
2023-01-09T11:10:48.662Z,9.00
2023-01-09T11:12:32.650Z,9.00
2023-01-09T11:14:30.974Z,9.00
2023-01-09T11:16:19.697Z,9.00
2023-01-09T11:17:52.061Z,9.00
2023-01-09T11:19:25.863Z,9.10
2023-01-09T11:21:13.559Z,9.00
2023-01-09T11:22:48.233Z,9.10
2023-01-09T11:24:23.696Z,9.00
2023-01-09T11:25:58.381Z,9.00
2023-01-09T11:27:30.131Z,9.00
2023-01-09T11:29:06.501Z,9.00
2023-01-09T11:30:59.651Z,9.00
2023-01-09T11:32:32.604Z,9.00
2023-01-09T11:34:04.424Z,9.00
2023-01-09T11:35:36.125Z,9.00
2023-01-09T11:37:11.832Z,9.00
2023-01-09T11:38:53.326Z,9.00
2023-01-09T11:40:25.338Z,9.00
2023-01-09T11:42:06.082Z,9.00
2023-01-09T11:43:39.206Z,9.00
2023-01-09T11:45:20.697Z,9.00
2023-01-09T11:46:52.426Z,9.00
2023-01-09T11:48:31.078Z,9.10
2023-01-09T11:50:19.170Z,9.10
2023-01-09T11:52:29.542Z,9.10
2023-01-09T11:54:13.163Z,9.00
2023-01-09T11:55:46.962Z,9.00
2023-01-09T11:57:18.972Z,9.00
2023-01-09T11:58:51.066Z,9.00
2023-01-09T12:00:29.624Z,9.00
2023-01-09T12:02:32.054Z,9.00
2023-01-09T12:04:14.911Z,9.00
2023-01-09T12:06:20.146Z,9.00
2023-01-09T12:08:16.619Z,9.00
2023-01-09T12:10:13.258Z,9.00
2023-01-09T12:11:56.602Z,9.00
2023-01-09T12:13:55.784Z,9.00
2023-01-09T12:15:36.595Z,9.00
2023-01-09T12:17:54.259Z,9.00
2023-01-09T12:19:44.686Z,9.00
2023-01-09T12:21:39.629Z,9.00
2023-01-09T12:23:43.505Z,8.90
2023-01-09T12:25:30.943Z,8.90
2023-01-09T12:27:26.993Z,8.90
2023-01-09T12:29:21.224Z,8.90
2023-01-09T12:31:10.344Z,9.00
2023-01-09T12:32:50.062Z,8.90
2023-01-09T12:34:40.288Z,8.90
2023-01-09T12:36:38.381Z,8.90
2023-01-09T12:38:48.857Z,8.90
2023-01-09T12:40:37.537Z,8.90
2023-01-09T12:42:26.814Z,8.90
2023-01-09T12:44:40.056Z,8.90
2023-01-09T12:46:22.994Z,8.90
2023-01-09T12:48:12.864Z,9.00
2023-01-09T12:50:07.137Z,9.00
2023-01-09T12:52:01.042Z,9.00
2023-01-09T12:53:40.841Z,9.00
2023-01-09T12:55:19.226Z,9.00
2023-01-09T12:57:02.377Z,9.00
2023-01-09T12:58:42.732Z,8.90
2023-01-09T13:00:39.074Z,9.00
2023-01-09T13:02:33.734Z,9.00
2023-01-09T13:04:24.067Z,9.00
2023-01-09T13:05:57.380Z,9.00
2023-01-09T13:07:59.903Z,9.00
2023-01-09T13:09:47.550Z,9.00
2023-01-09T13:11:28.161Z,9.00
2023-01-09T13:13:07.922Z,9.00
2023-01-09T13:14:57.742Z,9.00
2023-01-09T13:16:41.715Z,9.00
2023-01-09T13:18:46.993Z,9.00
2023-01-09T13:20:49.965Z,9.00
2023-01-09T13:22:25.978Z,9.00
2023-01-09T13:24:24.686Z,9.00
2023-01-09T13:26:00.257Z,9.00
2023-01-09T13:27:39.258Z,9.00
2023-01-09T13:29:22.973Z,9.00
2023-01-09T13:31:22.182Z,9.00
2023-01-09T13:33:16.821Z,9.00
2023-01-09T13:34:53.596Z,9.00
2023-01-09T13:36:33.676Z,9.00
2023-01-09T13:38:05.407Z,9.00
2023-01-09T13:39:37.145Z,9.00
2023-01-09T13:41:35.153Z,9.00
2023-01-09T13:43:09.781Z,9.00
2023-01-09T13:44:42.051Z,9.00
2023-01-09T13:46:14.431Z,9.00
2023-01-09T13:47:46.397Z,9.00
2023-01-09T13:49:36.453Z,9.00
2023-01-09T13:51:36.459Z,9.00
2023-01-09T13:53:18.303Z,9.00
2023-01-09T13:54:55.975Z,9.00
2023-01-09T13:56:27.798Z,9.00
2023-01-09T13:58:05.674Z,9.00
2023-01-09T13:59:37.455Z,9.00
2023-01-09T14:01:24.433Z,9.00
2023-01-09T14:02:57.752Z,9.00
2023-01-09T14:04:41.784Z,9.00
2023-01-09T14:06:16.421Z,9.00
2023-01-09T14:08:04.778Z,9.00
2023-01-09T14:09:37.646Z,9.00
2023-01-09T14:11:10.233Z,9.00
2023-01-09T14:12:43.372Z,9.00
2023-01-09T14:14:28.881Z,9.00
2023-01-09T14:16:14.850Z,9.00
2023-01-09T14:17:49.642Z,9.00
2023-01-09T14:19:33.423Z,9.00
2023-01-09T14:22:56.063Z,9.00
2023-01-09T14:24:49.338Z,9.00
2023-01-09T14:26:42.626Z,9.00
2023-01-09T14:28:21.963Z,9.00
2023-01-09T14:30:25.649Z,9.00
2023-01-09T14:32:22.377Z,9.00
2023-01-09T14:34:23.996Z,9.00
2023-01-09T14:36:21.549Z,9.00
2023-01-09T14:38:22.425Z,9.00
2023-01-09T14:39:55.408Z,9.00
2023-01-09T14:41:54.686Z,9.00
2023-01-09T14:43:45.297Z,9.00
2023-01-09T14:45:24.831Z,9.00
2023-01-09T14:47:16.403Z,9.00
2023-01-09T14:49:00.499Z,9.00
2023-01-09T14:50:44.896Z,9.10
2023-01-09T14:52:25.577Z,9.00
2023-01-09T14:53:59.817Z,9.00
2023-01-09T14:55:37.333Z,9.00
2023-01-09T14:57:32.192Z,9.00
2023-01-09T14:59:05.561Z,9.00
2023-01-09T15:00:37.387Z,9.00
2023-01-09T15:02:10.645Z,9.00
2023-01-09T15:03:51.426Z,9.00
2023-01-09T15:05:26.221Z,9.00
2023-01-09T15:06:58.931Z,9.00
2023-01-09T15:08:31.848Z,9.00
2023-01-09T15:10:04.471Z,9.00
2023-01-09T15:11:39.853Z,9.00
2023-01-09T15:13:18.273Z,9.00
2023-01-09T15:14:57.753Z,9.00
2023-01-09T15:16:30.884Z,9.00
2023-01-09T15:18:06.730Z,9.00
2023-01-09T15:19:38.448Z,9.00
2023-01-09T15:21:19.929Z,9.00
2023-01-09T15:22:54.635Z,9.00
2023-01-09T15:24:30.353Z,9.00
2023-01-09T15:26:30.846Z,9.00
2023-01-09T15:28:40.168Z,9.00
2023-01-09T15:30:21.268Z,9.00
2023-01-09T15:32:03.205Z,9.00
2023-01-09T15:33:38.860Z,9.00
2023-01-09T15:35:13.877Z,9.00
2023-01-09T15:36:49.101Z,9.00
2023-01-09T15:38:26.474Z,9.00
2023-01-09T15:40:00.703Z,9.00
2023-01-09T15:41:51.242Z,9.00
2023-01-09T15:43:23.074Z,9.00
2023-01-09T15:44:55.158Z,9.00
2023-01-09T15:46:26.939Z,9.00
2023-01-09T15:48:18.144Z,9.00
2023-01-09T15:49:50.767Z,9.00
2023-01-09T15:51:22.729Z,9.00
2023-01-09T15:52:56.193Z,9.00
2023-01-09T15:54:30.500Z,9.00
2023-01-09T15:56:33.189Z,9.00
2023-01-09T15:58:37.133Z,9.00
2023-01-09T16:00:50.942Z,9.00
2023-01-09T16:02:42.726Z,9.00
2023-01-09T16:04:17.045Z,9.00
2023-01-09T16:06:05.025Z,9.00
2023-01-09T16:07:36.690Z,9.00
2023-01-09T16:09:37.698Z,9.00
2023-01-09T16:11:22.310Z,9.00
2023-01-09T16:12:54.634Z,9.00
2023-01-09T16:14:34.484Z,9.10
2023-01-09T16:16:07.079Z,9.10
2023-01-09T16:17:39.668Z,9.10
2023-01-09T16:19:48.801Z,9.10
2023-01-09T16:21:37.369Z,9.10
2023-01-09T16:23:28.920Z,9.10
2023-01-09T16:25:27.331Z,9.10
2023-01-09T16:27:22.120Z,9.10
2023-01-09T16:28:54.147Z,9.10
2023-01-09T16:30:27.102Z,9.10
2023-01-09T16:32:00.654Z,9.00
2023-01-09T16:33:32.745Z,9.10
2023-01-09T16:35:07.414Z,9.10
2023-01-09T16:36:39.190Z,9.10
2023-01-09T16:38:14.378Z,9.10
2023-01-09T16:40:22.760Z,9.10
2023-01-09T16:42:16.057Z,9.10
2023-01-09T16:43:47.887Z,9.10
2023-01-09T16:45:20.612Z,9.10
2023-01-09T16:46:52.259Z,9.10
2023-01-09T16:48:24.064Z,9.10
2023-01-09T16:49:55.684Z,9.10
2023-01-09T16:51:29.376Z,9.10
2023-01-09T16:53:06.969Z,9.10
2023-01-09T16:54:38.938Z,9.10
2023-01-09T16:56:30.195Z,9.10
2023-01-09T16:58:01.888Z,9.10
2023-01-09T16:59:33.543Z,9.10
2023-01-09T17:01:06.680Z,9.10
2023-01-09T17:02:38.427Z,9.10
2023-01-09T17:04:14.823Z,9.10
2023-01-09T17:05:55.530Z,9.10
2023-01-09T17:07:28.038Z,9.00
2023-01-09T17:08:59.738Z,9.00
2023-01-09T17:10:34.391Z,9.10
2023-01-09T17:12:06.279Z,9.00
2023-01-09T17:13:38.139Z,9.00
2023-01-09T17:15:10.773Z,9.10
2023-01-09T17:16:45.663Z,9.10
2023-01-09T17:18:19.837Z,9.10
2023-01-09T17:19:51.552Z,9.10
2023-01-09T17:21:26.374Z,9.10
2023-01-09T17:22:57.983Z,9.10
2023-01-09T17:24:48.689Z,9.10
2023-01-09T17:26:40.088Z,9.10
2023-01-09T17:28:33.570Z,9.10
2023-01-09T17:30:18.267Z,9.10
2023-01-09T17:31:51.030Z,9.10
2023-01-09T17:33:22.731Z,9.00
2023-01-09T17:34:54.426Z,9.00
2023-01-09T17:36:32.096Z,9.10
2023-01-09T17:38:03.870Z,9.00
2023-01-09T17:39:35.535Z,9.00
2023-01-09T17:41:11.465Z,9.00
2023-01-09T17:42:43.438Z,9.00
2023-01-09T17:44:15.497Z,9.00
2023-01-09T17:45:47.507Z,9.00
2023-01-09T17:47:19.212Z,9.00
2023-01-09T17:48:50.976Z,9.00
2023-01-09T17:50:22.763Z,9.00
2023-01-09T17:51:54.478Z,9.00
2023-01-09T17:53:26.097Z,9.00
2023-01-09T17:54:57.771Z,9.00
2023-01-09T17:56:33.211Z,9.00
2023-01-09T17:58:05.347Z,9.10
2023-01-09T17:59:36.964Z,9.00
2023-01-09T18:01:10.147Z,9.00
2023-01-09T18:02:42.079Z,9.00
2023-01-09T18:04:13.784Z,9.00
2023-01-09T18:05:45.716Z,9.00
2023-01-09T18:07:17.956Z,9.00
2023-01-09T18:08:49.652Z,9.00
2023-01-09T18:10:24.462Z,9.00
2023-01-09T18:11:56.110Z,9.00
2023-01-09T18:13:27.755Z,9.00
2023-01-09T18:14:59.682Z,9.00
2023-01-09T18:16:31.469Z,9.00
2023-01-09T18:18:03.194Z,9.00
2023-01-09T18:19:34.861Z,8.90
2023-01-09T18:21:08.615Z,9.00
2023-01-09T18:22:40.286Z,9.00
2023-01-09T18:24:12.004Z,9.00
2023-01-09T18:25:44.048Z,8.90
2023-01-09T18:27:15.865Z,9.00
2023-01-09T18:28:54.224Z,8.90
2023-01-09T18:30:26.683Z,9.00
2023-01-09T18:31:58.546Z,8.90
2023-01-09T18:33:30.241Z,8.90
2023-01-09T18:35:03.018Z,8.90
2023-01-09T18:36:35.351Z,8.90
2023-01-09T18:38:07.557Z,8.90
2023-01-09T18:39:39.211Z,8.90
2023-01-09T18:41:10.887Z,8.90
2023-01-09T18:42:43.542Z,8.90
2023-01-09T18:44:17.860Z,8.90
2023-01-09T18:45:49.545Z,8.90
2023-01-09T18:47:21.184Z,8.90
2023-01-09T18:49:01.387Z,8.90
2023-01-09T18:50:33.600Z,8.90
2023-01-09T18:52:07.449Z,8.90
2023-01-09T18:53:39.302Z,8.90
2023-01-09T18:55:11.139Z,8.90
2023-01-09T18:56:42.876Z,8.90
2023-01-09T18:58:16.324Z,8.80
2023-01-09T18:59:48.024Z,8.80
2023-01-09T19:01:20.033Z,8.90
2023-01-09T19:02:51.897Z,8.90
2023-01-09T19:04:23.591Z,8.90
2023-01-09T19:06:00.331Z,8.90
2023-01-09T19:07:32.781Z,8.90
2023-01-09T19:09:06.438Z,8.90
2023-01-09T19:10:38.137Z,8.80
2023-01-09T19:12:09.796Z,8.80
2023-01-09T19:13:44.665Z,8.80
2023-01-09T19:15:16.295Z,8.80
2023-01-09T19:16:47.905Z,8.80
2023-01-09T19:18:19.545Z,8.80
2023-01-09T19:19:51.235Z,8.80
2023-01-09T19:21:26.520Z,8.80
2023-01-09T19:22:58.449Z,8.80
2023-01-09T19:24:32.006Z,8.80
2023-01-09T19:26:06.155Z,8.90
2023-01-09T19:27:38.234Z,8.90
2023-01-09T19:29:10.053Z,8.90
2023-01-09T19:30:42.208Z,8.80
2023-01-09T19:32:13.947Z,8.90
2023-01-09T19:33:45.869Z,8.90
2023-01-09T19:35:17.535Z,8.80
2023-01-09T19:36:49.270Z,8.80
2023-01-09T19:38:24.843Z,8.80
2023-01-09T19:39:56.517Z,8.80
2023-01-09T19:41:28.890Z,8.70
2023-01-09T19:43:00.631Z,8.80
2023-01-09T19:44:32.537Z,8.80
2023-01-09T19:46:08.340Z,8.80
2023-01-09T19:47:40.151Z,8.80
2023-01-09T19:49:11.785Z,8.80
2023-01-09T19:50:43.428Z,8.80
2023-01-09T19:52:15.108Z,8.70
2023-01-09T19:53:55.299Z,8.80
2023-01-09T19:55:26.909Z,8.80
2023-01-09T19:56:58.847Z,8.80
2023-01-09T19:58:30.447Z,8.80
2023-01-09T20:00:02.504Z,8.80
2023-01-09T20:01:45.065Z,8.70
2023-01-09T20:03:16.702Z,8.70
2023-01-09T20:04:48.329Z,8.70
2023-01-09T20:06:24.161Z,8.70
2023-01-09T20:07:55.965Z,8.70
2023-01-09T20:09:28.770Z,8.70
2023-01-09T20:11:06.522Z,8.70
2023-01-09T20:12:38.414Z,8.70
2023-01-09T20:14:14.742Z,8.70
2023-01-09T20:15:46.391Z,8.70
2023-01-09T20:17:19.603Z,8.70
2023-01-09T20:18:51.285Z,8.70
2023-01-09T20:20:22.924Z,8.70
2023-01-09T20:21:54.619Z,8.70
2023-01-09T20:23:27.841Z,8.70
2023-01-09T20:24:59.483Z,8.70
2023-01-09T20:26:32.351Z,8.70
2023-01-09T20:28:04.092Z,8.70
2023-01-09T20:29:35.763Z,8.70
2023-01-09T20:31:11.516Z,8.60
2023-01-09T20:32:44.515Z,8.60
2023-01-09T20:34:16.334Z,8.60
2023-01-09T20:35:48.276Z,8.60
2023-01-09T20:37:19.959Z,8.60
2023-01-09T20:38:51.599Z,8.60
2023-01-09T20:40:23.257Z,8.60
2023-01-09T20:41:54.943Z,8.60
2023-01-09T20:43:27.872Z,8.60
2023-01-09T20:44:59.577Z,8.60
2023-01-09T20:46:37.993Z,8.60
2023-01-09T20:48:10.983Z,8.60
2023-01-09T20:49:42.647Z,8.60
2023-01-09T20:51:14.310Z,8.50
2023-01-09T20:52:46.109Z,8.50
2023-01-09T20:54:21.087Z,8.60
2023-01-09T20:55:52.685Z,8.60
2023-01-09T20:57:24.368Z,8.60
2023-01-09T20:58:57.207Z,8.50
2023-01-09T21:00:31.911Z,8.50
2023-01-09T21:02:03.771Z,8.50
2023-01-09T21:03:35.429Z,8.50
2023-01-09T21:05:07.587Z,8.50
2023-01-09T21:06:39.414Z,8.50
2023-01-09T21:08:11.132Z,8.50
2023-01-09T21:09:42.916Z,8.50
2023-01-09T21:11:15.162Z,8.50
2023-01-09T21:12:47.055Z,8.50
2023-01-09T21:14:18.863Z,8.60
2023-01-09T21:15:50.516Z,8.50
2023-01-09T21:17:22.714Z,8.50
2023-01-09T21:18:54.828Z,8.50
2023-01-09T21:20:26.493Z,8.50
2023-01-09T21:21:58.157Z,8.60
2023-01-09T21:23:29.784Z,8.60
2023-01-09T21:25:01.578Z,8.50
2023-01-09T21:26:33.700Z,8.50
2023-01-09T21:28:06.357Z,8.50
2023-01-09T21:29:37.998Z,8.50
2023-01-09T21:31:09.777Z,8.50